Time;durP1;ratioP1;P1;durP2;ratioP2;P2;SDS_P1;SDS_P2;PMS_P1;PMS_P2;Temp;Humidity;BMP_temperature;BMP_pressure;BME280_temperature;BME280_humidity;BME280_pressure;Samples;Min_cycle;Max_cycle;Signal;HPM_P1;HPM_P2
2024/02/10 00:01:18;;;;;;;;;;;-2.60;99.90;;;;;;5056458;28;20016;-61
2024/02/10 00:03:45;;;;;;;;;;;-2.60;99.90;;;;;;5053846;28;19925;-66
2024/02/10 00:06:15;;;;;;;;;;;-2.60;99.90;;;;;;5070910;28;19929;-62
2024/02/10 00:08:43;;;;;;;;;;;-2.50;99.90;;;;;;5053885;28;19975;-58
2024/02/10 00:11:11;;;;;;;;;;;-2.50;99.90;;;;;;5058422;28;20019;-62
2024/02/10 00:13:39;;;;;;;;;;;-2.50;99.90;;;;;;5060101;28;19924;-58
2024/02/10 00:16:08;;;;;;;;;;;-2.50;99.90;;;;;;5057843;28;19931;-62
2024/02/10 00:18:35;;;;;;;;;;;-2.50;99.90;;;;;;5072847;28;19931;-58
2024/02/10 00:21:02;;;;;;;;;;;-2.50;99.90;;;;;;5058548;28;19928;-58
2024/02/10 00:23:29;;;;;;;;;;;-2.50;99.90;;;;;;5053131;28;20024;-58
2024/02/10 00:25:56;;;;;;;;;;;-2.50;99.90;;;;;;5056859;28;19924;-58
2024/02/10 00:28:26;;;;;;;;;;;-2.50;99.90;;;;;;5052192;28;19947;-58
2024/02/10 00:30:59;;;;;;;;;;;-2.50;99.90;;;;;;5063433;28;19924;-58
2024/02/10 00:33:26;;;;;;;;;;;-2.40;99.90;;;;;;5069824;28;20023;-58
2024/02/10 00:35:54;;;;;;;;;;;-2.50;99.90;;;;;;5065217;28;19925;-58
2024/02/10 00:38:21;;;;;;;;;;;-2.40;99.90;;;;;;5062139;28;20325;-58
2024/02/10 00:40:48;;;;;;;;;;;-2.40;99.90;;;;;;5062896;28;19931;-59
2024/02/10 00:43:15;;;;;;;;;;;-2.40;99.90;;;;;;5036331;28;20012;-61
2024/02/10 00:45:46;;;;;;;;;;;-2.40;99.90;;;;;;5048288;28;19991;-61
2024/02/10 00:48:13;;;;;;;;;;;-2.50;99.90;;;;;;5060105;28;19928;-58
2024/02/10 00:50:41;;;;;;;;;;;-2.50;99.90;;;;;;5058870;28;19952;-58
2024/02/10 00:53:09;;;;;;;;;;;-2.50;99.90;;;;;;5061650;28;20630;-65
2024/02/10 00:55:36;;;;;;;;;;;-2.50;99.90;;;;;;5059766;28;19925;-64
2024/02/10 00:58:06;;;;;;;;;;;-2.50;99.90;;;;;;5055334;28;19928;-58
2024/02/10 01:00:34;;;;;;;;;;;-2.50;99.90;;;;;;5059101;28;19929;-60
2024/02/10 01:03:02;;;;;;;;;;;-2.50;99.90;;;;;;5065156;28;20279;-63
2024/02/10 01:05:29;;;;;;;;;;;-2.50;99.90;;;;;;5060142;28;19931;-59
2024/02/10 01:07:59;;;;;;;;;;;-2.50;99.90;;;;;;5060042;28;19932;-63
2024/02/10 01:10:29;;;;;;;;;;;-2.50;99.90;;;;;;5057056;28;20281;-64
2024/02/10 01:13:03;;;;;;;;;;;-2.50;99.90;;;;;;5059475;28;19978;-63
2024/02/10 01:15:32;;;;;;;;;;;-2.50;99.90;;;;;;5049523;28;19948;-63
2024/02/10 01:18:03;;;;;;;;;;;-2.50;99.90;;;;;;5053471;28;19932;-62
2024/02/10 01:20:31;;;;;;;;;;;-2.50;99.90;;;;;;5053047;28;19925;-68
2024/02/10 01:22:59;;;;;;;;;;;-2.50;99.90;;;;;;5059665;28;20019;-67
2024/02/10 01:25:30;;;;;;;;;;;-2.50;99.90;;;;;;5056150;28;19994;-63
2024/02/10 01:27:58;;;;;;;;;;;-2.50;99.90;;;;;;5056964;28;19967;-62
2024/02/10 01:30:26;;;;;;;;;;;-2.50;99.90;;;;;;5052341;28;19935;-62
2024/02/10 01:32:57;;;;;;;;;;;-2.50;99.90;;;;;;5054843;28;19934;-63
2024/02/10 01:35:25;;;;;;;;;;;-2.50;99.90;;;;;;5067189;28;19925;-58
2024/02/10 01:37:52;;;;;;;;;;;-2.50;99.90;;;;;;5059808;28;19935;-58
2024/02/10 01:40:19;;;;;;;;;;;-2.50;99.90;;;;;;5057768;28;20020;-58
2024/02/10 01:42:46;;;;;;;;;;;-2.50;99.90;;;;;;5051627;28;20294;-59
2024/02/10 01:45:13;;;;;;;;;;;-2.50;99.90;;;;;;5042588;28;19929;-58
2024/02/10 01:47:41;;;;;;;;;;;-2.50;99.90;;;;;;5052265;28;20637;-58
2024/02/10 01:50:09;;;;;;;;;;;-2.50;99.90;;;;;;5058464;28;19931;-58
2024/02/10 01:52:36;;;;;;;;;;;-2.50;99.90;;;;;;5059750;28;19928;-58
2024/02/10 01:55:04;;;;;;;;;;;-2.50;99.90;;;;;;5056457;28;20375;-62
2024/02/10 01:57:32;;;;;;;;;;;-2.50;99.90;;;;;;5056740;28;19925;-58
2024/02/10 02:00:01;;;;;;;;;;;-2.50;99.90;;;;;;5055821;28;19925;-63
2024/02/10 02:02:30;;;;;;;;;;;-2.40;99.90;;;;;;5062966;28;19978;-59
2024/02/10 02:05:03;;;;;;;;;;;-2.40;99.90;;;;;;5066932;28;19924;-67
2024/02/10 02:07:31;;;;;;;;;;;-2.40;99.90;;;;;;5058196;28;19924;-59
2024/02/10 02:09:59;;;;;;;;;;;-2.40;99.90;;;;;;5059661;28;19928;-62
2024/02/10 02:12:27;;;;;;;;;;;-2.40;99.90;;;;;;5055351;28;19929;-58
2024/02/10 02:14:57;;;;;;;;;;;-2.40;99.90;;;;;;5070149;28;20435;-58
2024/02/10 02:17:24;;;;;;;;;;;-2.30;99.90;;;;;;5069773;28;19932;-58
2024/02/10 02:19:52;;;;;;;;;;;-2.30;99.90;;;;;;5071351;28;19925;-59
2024/02/10 02:22:19;;;;;;;;;;;-2.30;99.90;;;;;;5072481;28;20592;-58
2024/02/10 02:24:46;;;;;;;;;;;-2.30;99.90;;;;;;5053737;28;19939;-59
2024/02/10 02:27:14;;;;;;;;;;;-2.30;99.90;;;;;;5066570;28;19955;-58
2024/02/10 02:29:41;;;;;;;;;;;-2.30;99.90;;;;;;5066535;28;20336;-59
2024/02/10 02:32:10;;;;;;;;;;;-2.30;99.90;;;;;;5067054;28;19947;-61
2024/02/10 02:34:37;;;;;;;;;;;-2.30;99.90;;;;;;5055396;28;19932;-58
2024/02/10 02:37:06;;;;;;;;;;;-2.30;99.90;;;;;;5057800;28;19931;-58
2024/02/10 02:39:35;;;;;;;;;;;-2.20;99.90;;;;;;5057501;28;19925;-58
2024/02/10 02:42:05;;;;;;;;;;;-2.20;99.90;;;;;;5068609;28;19931;-58
2024/02/10 02:44:33;;;;;;;;;;;-2.20;99.90;;;;;;5061417;28;19933;-58
2024/02/10 02:47:04;;;;;;;;;;;-2.20;99.90;;;;;;5054916;28;20287;-63
2024/02/10 02:49:32;;;;;;;;;;;-2.20;99.90;;;;;;5070956;28;19928;-58
2024/02/10 02:51:59;;;;;;;;;;;-2.10;99.90;;;;;;5061059;28;19925;-67
2024/02/10 02:54:26;;;;;;;;;;;-2.10;99.90;;;;;;5061687;28;19957;-61
2024/02/10 02:56:55;;;;;;;;;;;-2.10;99.90;;;;;;5058604;28;20382;-61
2024/02/10 02:59:22;;;;;;;;;;;-2.10;99.90;;;;;;5063324;28;20410;-59
2024/02/10 03:01:51;;;;;;;;;;;-2.10;99.90;;;;;;5075122;28;19931;-59
2024/02/10 03:04:19;;;;;;;;;;;-2.10;99.90;;;;;;5061832;28;19935;-58
2024/02/10 03:06:46;;;;;;;;;;;-2.10;99.90;;;;;;5057594;28;20047;-58
2024/02/10 03:09:13;;;;;;;;;;;-2.10;99.90;;;;;;5058868;28;19974;-58
2024/02/10 03:11:40;;;;;;;;;;;-2.00;99.90;;;;;;5057042;28;19925;-63
2024/02/10 03:14:07;;;;;;;;;;;-2.00;99.90;;;;;;5072330;28;19924;-59
2024/02/10 03:16:34;;;;;;;;;;;-1.90;99.90;;;;;;5064199;28;19924;-58
2024/02/10 03:19:04;;;;;;;;;;;-1.90;99.90;;;;;;5062573;28;19925;-64
2024/02/10 03:21:35;;;;;;;;;;;-1.80;99.90;;;;;;5044431;28;19931;-62
2024/02/10 03:24:03;;;;;;;;;;;-1.80;99.90;;;;;;5067072;28;20031;-58
2024/02/10 03:26:31;;;;;;;;;;;-1.70;99.90;;;;;;5047984;28;20455;-61
2024/02/10 03:28:58;;;;;;;;;;;-1.70;99.90;;;;;;5056208;28;20334;-72
2024/02/10 03:31:25;;;;;;;;;;;-1.60;99.90;;;;;;5053235;28;20346;-59
2024/02/10 03:33:52;;;;;;;;;;;-1.60;99.90;;;;;;5064718;28;19964;-59
2024/02/10 03:36:19;;;;;;;;;;;-1.60;99.90;;;;;;5055446;28;19933;-58
2024/02/10 03:38:46;;;;;;;;;;;-1.50;99.90;;;;;;5066711;28;19925;-59
2024/02/10 03:41:15;;;;;;;;;;;-1.50;99.90;;;;;;5065080;28;19990;-60
2024/02/10 03:43:42;;;;;;;;;;;-1.50;99.90;;;;;;5057443;28;20356;-62
2024/02/10 03:46:09;;;;;;;;;;;-1.40;99.90;;;;;;5058047;28;19926;-58
2024/02/10 03:48:39;;;;;;;;;;;-1.40;99.90;;;;;;5056263;28;20016;-58
2024/02/10 03:51:07;;;;;;;;;;;-1.40;99.90;;;;;;5063141;28;19991;-59
2024/02/10 03:53:34;;;;;;;;;;;-1.40;99.90;;;;;;5067026;28;19924;-58
2024/02/10 03:56:01;;;;;;;;;;;-1.40;99.90;;;;;;5057522;28;20389;-68
2024/02/10 03:58:29;;;;;;;;;;;-1.30;99.90;;;;;;5057263;28;19925;-59
2024/02/10 04:00:57;;;;;;;;;;;-1.30;99.90;;;;;;5054695;28;19972;-58
2024/02/10 04:03:27;;;;;;;;;;;-1.30;99.90;;;;;;5053404;28;19925;-59
2024/02/10 04:05:54;;;;;;;;;;;-1.30;99.90;;;;;;5053875;28;19951;-58
2024/02/10 04:08:21;;;;;;;;;;;-1.30;99.90;;;;;;5065488;28;19982;-59
2024/02/10 04:10:48;;;;;;;;;;;-1.30;99.90;;;;;;5057094;28;19931;-60
2024/02/10 04:13:15;;;;;;;;;;;-1.20;99.90;;;;;;5058340;28;19931;-59
2024/02/10 04:15:43;;;;;;;;;;;-1.20;99.90;;;;;;5064490;28;20436;-58
2024/02/10 04:18:10;;;;;;;;;;;-1.20;99.90;;;;;;5056137;28;19925;-75
2024/02/10 04:20:37;;;;;;;;;;;-1.20;99.90;;;;;;5058506;28;19925;-58
2024/02/10 04:23:05;;;;;;;;;;;-1.20;99.90;;;;;;5069167;28;19924;-58
2024/02/10 04:25:32;;;;;;;;;;;-1.20;99.90;;;;;;5064590;28;19947;-59
2024/02/10 04:28:02;;;;;;;;;;;-1.10;99.90;;;;;;5062480;28;20011;-59
2024/02/10 04:30:30;;;;;;;;;;;-1.20;99.90;;;;;;5060696;28;19975;-58
2024/02/10 04:32:57;;;;;;;;;;;-1.20;99.90;;;;;;5066602;28;19928;-61
2024/02/10 04:35:25;;;;;;;;;;;-1.20;99.90;;;;;;5064317;28;19929;-58
2024/02/10 04:37:53;;;;;;;;;;;-1.20;99.90;;;;;;5058843;28;19924;-59
2024/02/10 04:40:23;;;;;;;;;;;-1.20;99.90;;;;;;5065616;28;19932;-58
2024/02/10 04:42:52;;;;;;;;;;;-1.20;99.90;;;;;;5054648;28;20577;-60
2024/02/10 04:45:26;;;;;;;;;;;-1.30;99.90;;;;;;5061885;28;20295;-59
2024/02/10 04:47:53;;;;;;;;;;;-1.30;99.90;;;;;;5061321;28;20028;-58
2024/02/10 04:50:20;;;;;;;;;;;-1.30;99.90;;;;;;5046427;28;20543;-61
2024/02/10 04:52:47;;;;;;;;;;;-1.30;99.90;;;;;;5052784;28;19925;-59
2024/02/10 04:55:15;;;;;;;;;;;-1.30;99.90;;;;;;5061990;28;20028;-60
2024/02/10 04:57:43;;;;;;;;;;;-1.30;99.90;;;;;;5067726;28;20397;-59
2024/02/10 05:00:12;;;;;;;;;;;-1.30;99.90;;;;;;5046721;28;19928;-58
2024/02/10 05:02:39;;;;;;;;;;;-1.30;99.90;;;;;;5051264;28;19925;-59
2024/02/10 05:05:06;;;;;;;;;;;-1.30;99.90;;;;;;5057289;28;19925;-59
2024/02/10 05:07:33;;;;;;;;;;;-1.30;99.90;;;;;;5064144;28;19940;-70
2024/02/10 05:10:01;;;;;;;;;;;-1.30;99.90;;;;;;5061915;28;20011;-62
2024/02/10 05:12:27;;;;;;;;;;;-1.30;99.90;;;;;;5056506;28;19951;-58
2024/02/10 05:14:57;;;;;;;;;;;-1.30;99.90;;;;;;5048857;28;20391;-59
2024/02/10 05:17:24;;;;;;;;;;;-1.30;99.90;;;;;;5068486;28;20027;-59
2024/02/10 05:19:51;;;;;;;;;;;-1.30;99.90;;;;;;5072514;28;20412;-58
2024/02/10 05:22:18;;;;;;;;;;;-1.30;99.90;;;;;;5044641;28;19925;-60
2024/02/10 05:24:48;;;;;;;;;;;-1.30;99.90;;;;;;5063555;28;20023;-62
2024/02/10 05:27:15;;;;;;;;;;;-1.20;99.90;;;;;;5057753;28;19974;-59
2024/02/10 05:29:41;;;;;;;;;;;-1.30;99.90;;;;;;5057411;28;19959;-59
2024/02/10 05:32:08;;;;;;;;;;;-1.20;99.90;;;;;;5058099;28;19924;-59
2024/02/10 05:34:35;;;;;;;;;;;-1.30;99.90;;;;;;5069044;28;19928;-59
2024/02/10 05:37:03;;;;;;;;;;;-1.30;99.90;;;;;;5051639;28;19964;-64
2024/02/10 05:39:30;;;;;;;;;;;-1.30;99.90;;;;;;5063395;28;19924;-61
2024/02/10 05:41:59;;;;;;;;;;;-1.30;99.90;;;;;;5062533;28;19925;-62
2024/02/10 05:44:26;;;;;;;;;;;-1.20;99.90;;;;;;5057736;28;19955;-58
2024/02/10 05:46:53;;;;;;;;;;;-1.30;99.90;;;;;;5067585;28;20387;-61
2024/02/10 05:49:23;;;;;;;;;;;-1.20;99.90;;;;;;5066113;28;20424;-63
2024/02/10 05:51:50;;;;;;;;;;;-1.20;99.90;;;;;;5064917;28;19932;-59
2024/02/10 05:54:17;;;;;;;;;;;-1.20;99.90;;;;;;5066543;28;20383;-58
2024/02/10 05:56:44;;;;;;;;;;;-1.20;99.90;;;;;;5068077;28;19928;-58
2024/02/10 05:59:12;;;;;;;;;;;-1.20;99.90;;;;;;5060653;28;19924;-62
2024/02/10 06:01:39;;;;;;;;;;;-1.20;99.90;;;;;;5070193;28;19978;-60
2024/02/10 06:04:09;;;;;;;;;;;-1.20;99.90;;;;;;5066217;28;19968;-58
2024/02/10 06:06:36;;;;;;;;;;;-1.10;99.90;;;;;;5070199;28;20028;-59
2024/02/10 06:09:07;;;;;;;;;;;-1.10;99.90;;;;;;5065054;28;19928;-59
2024/02/10 06:11:34;;;;;;;;;;;-1.10;99.90;;;;;;5072192;28;19925;-59
2024/02/10 06:14:01;;;;;;;;;;;-1.10;99.90;;;;;;5060119;28;20325;-65
2024/02/10 06:16:28;;;;;;;;;;;-1.10;99.90;;;;;;5059686;28;20379;-62
2024/02/10 06:18:55;;;;;;;;;;;-1.10;99.90;;;;;;5064053;28;19935;-60
2024/02/10 06:21:22;;;;;;;;;;;-1.10;99.90;;;;;;5074705;28;20407;-61
2024/02/10 06:23:50;;;;;;;;;;;-1.10;99.90;;;;;;5067256;28;19936;-59
2024/02/10 06:26:17;;;;;;;;;;;-1.10;99.90;;;;;;5090098;28;20270;-59
2024/02/10 06:28:49;;;;;;;;;;;-1.10;99.90;;;;;;5060640;28;20244;-58
2024/02/10 06:31:18;;;;;;;;;;;-1.10;99.90;;;;;;5062964;28;19925;-59
2024/02/10 06:33:48;;;;;;;;;;;-1.00;99.90;;;;;;5063186;28;19925;-71
2024/02/10 06:36:15;;;;;;;;;;;-1.00;99.90;;;;;;5061999;28;19933;-63
2024/02/10 06:38:43;;;;;;;;;;;-1.00;99.90;;;;;;5074333;28;19932;-58
2024/02/10 06:41:10;;;;;;;;;;;-1.00;99.90;;;;;;5071007;28;19932;-63
2024/02/10 06:43:38;;;;;;;;;;;-1.00;99.90;;;;;;5062590;28;20557;-58
2024/02/10 06:46:07;;;;;;;;;;;-0.90;99.90;;;;;;5073696;28;19932;-58
2024/02/10 06:48:35;;;;;;;;;;;-0.90;99.90;;;;;;5068722;28;20383;-60
2024/02/10 06:51:01;;;;;;;;;;;-0.90;99.90;;;;;;5060089;28;19924;-60
2024/02/10 06:53:28;;;;;;;;;;;-0.80;99.90;;;;;;5070800;28;19951;-59
2024/02/10 06:55:56;;;;;;;;;;;-0.80;99.90;;;;;;5065400;28;19967;-58
2024/02/10 06:58:24;;;;;;;;;;;-0.80;99.90;;;;;;5066337;28;19947;-58
2024/02/10 07:00:51;;;;;;;;;;;-0.80;99.90;;;;;;5062871;28;19964;-58
2024/02/10 07:03:20;;;;;;;;;;;-0.80;99.90;;;;;;5054176;28;20430;-59
2024/02/10 07:05:49;;;;;;;;;;;-0.80;99.90;;;;;;5072384;28;20027;-58
2024/02/10 07:08:17;;;;;;;;;;;-0.80;99.90;;;;;;5066645;28;19924;-60
2024/02/10 07:10:48;;;;;;;;;;;-0.80;99.90;;;;;;5048252;28;19924;-59
2024/02/10 07:13:15;;;;;;;;;;;-0.70;99.90;;;;;;5062021;28;19970;-63
2024/02/10 07:15:42;;;;;;;;;;;-0.80;99.90;;;;;;5061485;28;19951;-58
2024/02/10 07:18:09;;;;;;;;;;;-0.80;99.90;;;;;;5048511;28;19929;-58
2024/02/10 07:20:36;;;;;;;;;;;-0.70;99.90;;;;;;5055801;28;19931;-61
2024/02/10 07:23:04;;;;;;;;;;;-0.70;99.90;;;;;;5061483;28;19925;-59
2024/02/10 07:25:33;;;;;;;;;;;-0.70;99.90;;;;;;5057563;28;19931;-64
2024/02/10 07:28:03;;;;;;;;;;;-0.70;99.90;;;;;;5060875;28;20302;-62
2024/02/10 07:30:31;;;;;;;;;;;-0.60;99.90;;;;;;5063556;28;19956;-58
2024/02/10 07:33:08;;;;;;;;;;;-0.60;99.90;;;;;;5058359;28;19924;-61
2024/02/10 07:35:38;;;;;;;;;;;-0.60;99.90;;;;;;5054445;28;19975;-64
2024/02/10 07:38:05;;;;;;;;;;;-0.60;99.90;;;;;;5053346;28;19925;-71
2024/02/10 07:40:32;;;;;;;;;;;-0.60;99.90;;;;;;5052402;28;19925;-66
2024/02/10 07:42:58;;;;;;;;;;;-0.60;99.90;;;;;;5054887;28;19931;-60
2024/02/10 07:45:26;;;;;;;;;;;-0.50;99.90;;;;;;5064583;28;19925;-72
2024/02/10 07:47:55;;;;;;;;;;;-0.50;99.90;;;;;;5057023;28;19924;-59
2024/02/10 07:50:23;;;;;;;;;;;-0.50;99.90;;;;;;5055629;28;19970;-58
2024/02/10 07:52:53;;;;;;;;;;;-0.40;99.90;;;;;;5054996;28;19970;-61
2024/02/10 07:55:20;;;;;;;;;;;-0.40;99.90;;;;;;5056633;28;20387;-59
2024/02/10 07:57:48;;;;;;;;;;;-0.40;99.90;;;;;;5062410;28;19924;-61
2024/02/10 08:00:18;;;;;;;;;;;-0.30;99.90;;;;;;5044576;28;19933;-60
2024/02/10 08:02:45;;;;;;;;;;;-0.30;99.90;;;;;;5052582;28;19925;-61
2024/02/10 08:05:15;;;;;;;;;;;-0.30;99.90;;;;;;5055623;28;19936;-59
2024/02/10 08:07:42;;;;;;;;;;;-0.30;99.90;;;;;;5055541;28;19929;-65
2024/02/10 08:10:09;;;;;;;;;;;-0.20;99.90;;;;;;5062088;28;19925;-58
2024/02/10 08:12:36;;;;;;;;;;;-0.20;99.90;;;;;;5058118;28;20378;-65
2024/02/10 08:15:03;;;;;;;;;;;-0.20;99.90;;;;;;5055492;28;20349;-63
2024/02/10 08:17:30;;;;;;;;;;;-0.20;99.90;;;;;;5060510;28;19931;-59
2024/02/10 08:19:58;;;;;;;;;;;-0.10;99.90;;;;;;5059324;28;19925;-59
2024/02/10 08:22:26;;;;;;;;;;;-0.10;99.90;;;;;;5048949;28;20039;-69
2024/02/10 08:24:55;;;;;;;;;;;-0.10;99.90;;;;;;5042491;28;20267;-59
2024/02/10 08:27:25;;;;;;;;;;;0.00;99.90;;;;;;5032071;28;19960;-59
2024/02/10 08:29:53;;;;;;;;;;;0.00;99.90;;;;;;5038759;28;20431;-59
2024/02/10 08:32:19;;;;;;;;;;;0.00;99.90;;;;;;5036713;28;19972;-60
2024/02/10 08:34:46;;;;;;;;;;;0.00;99.90;;;;;;5037059;28;20430;-59
2024/02/10 08:37:14;;;;;;;;;;;0.10;99.90;;;;;;5035402;28;19935;-66
2024/02/10 08:39:44;;;;;;;;;;;0.10;99.90;;;;;;5037189;28;19928;-59
2024/02/10 08:42:11;;;;;;;;;;;0.10;99.90;;;;;;5033139;28;20334;-64
2024/02/10 08:44:39;;;;;;;;;;;0.20;99.90;;;;;;5035908;28;20309;-59
2024/02/10 08:47:06;;;;;;;;;;;0.20;99.90;;;;;;5035446;28;19975;-66
2024/02/10 08:49:36;;;;;;;;;;;0.30;99.90;;;;;;5032726;28;20012;-59
2024/02/10 08:52:04;;;;;;;;;;;0.30;99.90;;;;;;5034305;28;20108;-61
2024/02/10 08:54:41;;;;;;;;;;;0.30;99.90;;;;;;5033259;28;20310;-60
2024/02/10 08:57:09;;;;;;;;;;;0.40;99.90;;;;;;5037792;28;19925;-62
2024/02/10 08:59:41;;;;;;;;;;;0.40;99.90;;;;;;5033932;28;20015;-60
2024/02/10 09:02:09;;;;;;;;;;;0.40;99.90;;;;;;5034890;28;19933;-59
2024/02/10 09:04:40;;;;;;;;;;;0.50;99.90;;;;;;5029913;28;20312;-59
2024/02/10 09:07:07;;;;;;;;;;;0.60;99.90;;;;;;5028692;28;19952;-60
2024/02/10 09:09:35;;;;;;;;;;;0.60;99.90;;;;;;5035246;28;19926;-63
2024/02/10 09:12:02;;;;;;;;;;;0.60;99.90;;;;;;5033740;28;19929;-66
2024/02/10 09:14:29;;;;;;;;;;;0.70;99.90;;;;;;5033160;28;19972;-63
2024/02/10 09:16:57;;;;;;;;;;;0.70;99.90;;;;;;5039153;28;20022;-61
2024/02/10 09:19:24;;;;;;;;;;;0.70;99.90;;;;;;5040050;28;19929;-60
2024/02/10 09:21:58;;;;;;;;;;;0.70;99.90;;;;;;5026795;28;19933;-61
2024/02/10 09:24:26;;;;;;;;;;;0.80;99.90;;;;;;5050572;28;19964;-62
2024/02/10 09:26:54;;;;;;;;;;;0.70;99.90;;;;;;5058263;28;20386;-59
2024/02/10 09:29:21;;;;;;;;;;;0.80;99.90;;;;;;5058684;28;19979;-59
2024/02/10 09:31:49;;;;;;;;;;;0.80;99.90;;;;;;5055516;28;19931;-65
2024/02/10 09:34:18;;;;;;;;;;;0.80;99.90;;;;;;5051954;28;19924;-63
2024/02/10 09:36:45;;;;;;;;;;;0.80;99.90;;;;;;5059133;28;20405;-60
2024/02/10 09:39:21;;;;;;;;;;;0.90;99.90;;;;;;5054740;28;19924;-59
2024/02/10 09:41:50;;;;;;;;;;;0.90;99.90;;;;;;5053592;28;20334;-66
2024/02/10 09:44:19;;;;;;;;;;;0.90;99.90;;;;;;5050694;28;20258;-62
2024/02/10 09:46:50;;;;;;;;;;;1.00;99.90;;;;;;5053459;28;20428;-65
2024/02/10 09:49:18;;;;;;;;;;;0.90;99.90;;;;;;5052971;28;20335;-59
2024/02/10 09:51:45;;;;;;;;;;;0.90;99.90;;;;;;5058192;28;19978;-63
2024/02/10 09:54:15;;;;;;;;;;;0.90;99.90;;;;;;5055362;28;19931;-60
2024/02/10 09:56:43;;;;;;;;;;;0.80;99.90;;;;;;5055070;28;19925;-59
2024/02/10 09:59:15;;;;;;;;;;;0.90;99.90;;;;;;5059709;28;19925;-61
2024/02/10 10:01:43;;;;;;;;;;;0.80;99.90;;;;;;5064824;28;20463;-59
2024/02/10 10:04:11;;;;;;;;;;;0.90;99.90;;;;;;5048991;28;19931;-58
2024/02/10 10:06:42;;;;;;;;;;;0.90;99.90;;;;;;5056738;28;19979;-58
2024/02/10 10:09:11;;;;;;;;;;;1.00;99.90;;;;;;5056598;28;20401;-60
2024/02/10 10:11:40;;;;;;;;;;;1.00;99.90;;;;;;5052195;28;19978;-59
2024/02/10 10:14:07;;;;;;;;;;;1.00;99.90;;;;;;5052158;28;19932;-59
2024/02/10 10:16:34;;;;;;;;;;;1.10;99.90;;;;;;5052393;28;19928;-60
2024/02/10 10:19:02;;;;;;;;;;;1.10;99.90;;;;;;5061588;28;19931;-60
2024/02/10 10:21:32;;;;;;;;;;;1.10;99.90;;;;;;5044546;28;19925;-59
2024/02/10 10:24:03;;;;;;;;;;;1.10;99.90;;;;;;5054962;28;19931;-59
2024/02/10 10:26:31;;;;;;;;;;;1.10;99.90;;;;;;5060751;28;19925;-59
2024/02/10 10:28:58;;;;;;;;;;;1.10;99.90;;;;;;5061232;28;19931;-61
2024/02/10 10:31:27;;;;;;;;;;;1.10;99.90;;;;;;5055466;28;19963;-59
2024/02/10 10:33:54;;;;;;;;;;;1.20;99.90;;;;;;5057464;28;19929;-59
2024/02/10 10:36:22;;;;;;;;;;;1.20;99.90;;;;;;5059058;28;19928;-59
2024/02/10 10:38:49;;;;;;;;;;;1.20;99.90;;;;;;5059845;28;20294;-59
2024/02/10 10:41:18;;;;;;;;;;;1.20;99.90;;;;;;5056604;28;19930;-60
2024/02/10 10:43:46;;;;;;;;;;;1.30;99.90;;;;;;5058929;28;19931;-59
2024/02/10 10:46:16;;;;;;;;;;;1.30;99.90;;;;;;5058247;28;20442;-59
2024/02/10 10:48:44;;;;;;;;;;;1.40;99.90;;;;;;5051463;28;20020;-62
2024/02/10 10:51:16;;;;;;;;;;;1.30;99.90;;;;;;5062229;28;19932;-64
2024/02/10 10:53:47;;;;;;;;;;;1.30;99.90;;;;;;5054655;28;20335;-66
2024/02/10 10:56:15;;;;;;;;;;;1.40;99.90;;;;;;5063365;28;19983;-59
2024/02/10 10:58:47;;;;;;;;;;;1.50;99.90;;;;;;5056840;28;20449;-59
2024/02/10 11:01:15;;;;;;;;;;;1.40;99.90;;;;;;5061728;28;20429;-60
2024/02/10 11:03:44;;;;;;;;;;;1.40;99.90;;;;;;5054236;28;20635;-59
2024/02/10 11:06:12;;;;;;;;;;;1.30;99.90;;;;;;5057135;28;20383;-60
2024/02/10 11:08:42;;;;;;;;;;;1.30;99.90;;;;;;5062347;28;19925;-60
2024/02/10 11:11:12;;;;;;;;;;;1.40;99.90;;;;;;5063043;28;19931;-64
2024/02/10 11:13:39;;;;;;;;;;;1.30;99.90;;;;;;5062696;28;19924;-60
2024/02/10 11:16:13;;;;;;;;;;;1.40;99.90;;;;;;5053126;28;20294;-63
2024/02/10 11:18:44;;;;;;;;;;;1.40;99.90;;;;;;5054364;28;19964;-66
2024/02/10 11:21:18;;;;;;;;;;;1.40;99.90;;;;;;5048258;28;20361;-63
2024/02/10 11:23:56;;;;;;;;;;;1.30;99.90;;;;;;5054961;28;19924;-63
2024/02/10 11:26:26;;;;;;;;;;;1.30;99.90;;;;;;5054041;28;20313;-59
2024/02/10 11:29:00;;;;;;;;;;;1.20;99.90;;;;;;5052318;28;19980;-58
2024/02/10 11:31:28;;;;;;;;;;;1.20;99.90;;;;;;5050456;28;19925;-59
2024/02/10 11:34:00;;;;;;;;;;;1.20;99.90;;;;;;5054545;28;19932;-59
2024/02/10 11:36:28;;;;;;;;;;;1.20;99.90;;;;;;5061723;28;19925;-59
2024/02/10 11:38:55;;;;;;;;;;;1.20;99.90;;;;;;5053597;28;19925;-71
2024/02/10 11:41:23;;;;;;;;;;;1.20;99.90;;;;;;5054894;28;19959;-59
2024/02/10 11:43:50;;;;;;;;;;;1.20;99.90;;;;;;5057700;28;19932;-59
2024/02/10 11:46:17;;;;;;;;;;;1.10;99.90;;;;;;5058231;28;20331;-61
2024/02/10 11:48:44;;;;;;;;;;;1.10;99.90;;;;;;5055453;28;19933;-60
2024/02/10 11:51:11;;;;;;;;;;;1.00;99.90;;;;;;5054429;28;19925;-60
2024/02/10 11:53:42;;;;;;;;;;;1.00;99.90;;;;;;5062113;28;20383;-63
2024/02/10 11:56:09;;;;;;;;;;;0.90;99.90;;;;;;5065337;28;19978;-60
2024/02/10 11:58:36;;;;;;;;;;;0.90;99.90;;;;;;5055451;28;20278;-59
2024/02/10 12:01:03;;;;;;;;;;;1.00;99.90;;;;;;5059729;28;19932;-70
2024/02/10 12:03:31;;;;;;;;;;;0.90;99.90;;;;;;5057397;28;19964;-63
2024/02/10 12:05:59;;;;;;;;;;;1.00;99.90;;;;;;5061013;28;19937;-59
2024/02/10 12:08:29;;;;;;;;;;;1.00;99.90;;;;;;5060235;28;20343;-64
2024/02/10 12:10:56;;;;;;;;;;;1.00;99.90;;;;;;5054376;28;19924;-60
2024/02/10 12:13:25;;;;;;;;;;;1.00;99.90;;;;;;5058909;28;20023;-60
2024/02/10 12:15:59;;;;;;;;;;;1.00;99.90;;;;;;5057497;28;19960;-60
2024/02/10 12:18:27;;;;;;;;;;;1.00;99.90;;;;;;5054007;28;19924;-59
2024/02/10 12:20:54;;;;;;;;;;;1.10;99.90;;;;;;5053566;28;19924;-60
2024/02/10 12:23:21;;;;;;;;;;;1.00;99.90;;;;;;5054420;28;19929;-65
2024/02/10 12:25:47;;;;;;;;;;;1.00;99.90;;;;;;5055332;28;19932;-62
2024/02/10 12:28:14;;;;;;;;;;;1.10;99.90;;;;;;5055575;28;19925;-63
2024/02/10 12:30:41;;;;;;;;;;;1.00;99.90;;;;;;5053981;28;19925;-63
2024/02/10 12:33:09;;;;;;;;;;;1.00;99.90;;;;;;5057146;28;19936;-61
2024/02/10 12:35:38;;;;;;;;;;;1.00;99.90;;;;;;5053544;28;19951;-63
2024/02/10 12:38:05;;;;;;;;;;;0.90;99.90;;;;;;5053613;28;19929;-66
2024/02/10 12:40:36;;;;;;;;;;;0.80;99.90;;;;;;5050867;28;19928;-64
2024/02/10 12:43:04;;;;;;;;;;;0.80;99.90;;;;;;5055662;28;19931;-65
2024/02/10 12:45:35;;;;;;;;;;;0.80;99.90;;;;;;5049482;28;19925;-59
2024/02/10 12:48:05;;;;;;;;;;;0.80;99.90;;;;;;5055929;28;19932;-63
2024/02/10 12:50:32;;;;;;;;;;;0.70;99.90;;;;;;5061600;28;20271;-63
2024/02/10 12:53:00;;;;;;;;;;;0.70;99.90;;;;;;5058375;28;19924;-60
2024/02/10 12:55:27;;;;;;;;;;;0.70;99.90;;;;;;5054232;28;19929;-60
2024/02/10 12:57:54;;;;;;;;;;;0.70;99.90;;;;;;5053275;28;19986;-61
2024/02/10 13:00:24;;;;;;;;;;;0.70;99.90;;;;;;5051505;28;19982;-66
2024/02/10 13:02:51;;;;;;;;;;;0.80;99.90;;;;;;5055392;28;19924;-67
2024/02/10 13:05:20;;;;;;;;;;;0.80;99.90;;;;;;5061801;28;19931;-59
2024/02/10 13:07:47;;;;;;;;;;;0.80;99.90;;;;;;5056098;28;19925;-65
2024/02/10 13:10:21;;;;;;;;;;;0.80;99.90;;;;;;5055897;28;19931;-60
2024/02/10 13:12:48;;;;;;;;;;;0.80;99.90;;;;;;5051275;28;19947;-62
2024/02/10 13:15:15;;;;;;;;;;;0.80;99.90;;;;;;5051938;28;19999;-59
2024/02/10 13:17:42;;;;;;;;;;;0.80;99.90;;;;;;5055727;28;19929;-59
2024/02/10 13:20:11;;;;;;;;;;;0.80;99.90;;;;;;5050387;28;19932;-61
2024/02/10 13:22:39;;;;;;;;;;;0.80;99.90;;;;;;5054398;28;19931;-60
2024/02/10 13:25:08;;;;;;;;;;;0.70;99.90;;;;;;5052992;28;19932;-67
2024/02/10 13:27:35;;;;;;;;;;;0.70;99.90;;;;;;5059015;28;19928;-59
2024/02/10 13:30:09;;;;;;;;;;;0.70;99.90;;;;;;5056742;28;19925;-61
2024/02/10 13:32:36;;;;;;;;;;;0.70;99.90;;;;;;5054701;28;19936;-62
2024/02/10 13:35:04;;;;;;;;;;;0.70;99.90;;;;;;5060388;28;19924;-64
2024/02/10 14:12:39;;;;;;;;;;;0.70;99.90;;;;;;5055603;28;19928;-64
2024/02/10 14:15:16;;;;;;;;;;;0.60;99.90;;;;;;5057265;28;19933;-67
2024/02/10 14:17:47;;;;;;;;;;;0.60;99.90;;;;;;5057269;28;19924;-64
2024/02/10 14:20:24;;;;;;;;;;;0.60;99.90;;;;;;5056505;28;19925;-59
2024/02/10 14:22:59;;;;;;;;;;;0.60;99.90;;;;;;5060604;28;19947;-62
2024/02/10 14:25:27;;;;;;;;;;;0.60;99.90;;;;;;5058881;28;19964;-67
2024/02/10 14:27:58;;;;;;;;;;;0.50;99.90;;;;;;5057910;28;19963;-59
2024/02/10 14:30:34;;;;;;;;;;;0.50;99.90;;;;;;5059243;28;19978;-62
2024/02/10 14:33:02;;;;;;;;;;;0.50;99.90;;;;;;5059468;28;19928;-65
2024/02/10 14:35:58;;;;;;;;;;;0.50;99.90;;;;;;5062172;28;20401;-60
2024/02/10 14:38:28;;;;;;;;;;;0.50;99.90;;;;;;5059471;28;20371;-59
2024/02/10 14:40:55;;;;;;;;;;;0.40;99.90;;;;;;5050228;28;20375;-59
2024/02/10 14:43:27;;;;;;;;;;;0.40;99.90;;;;;;5054907;28;19924;-60
2024/02/10 14:45:54;;;;;;;;;;;0.40;99.90;;;;;;5059371;28;20027;-59
2024/02/10 14:48:22;;;;;;;;;;;0.40;99.90;;;;;;5071113;28;19928;-63
2024/02/10 14:50:49;;;;;;;;;;;0.40;99.90;;;;;;5052732;28;19925;-59
2024/02/10 14:53:16;;;;;;;;;;;0.40;99.90;;;;;;5057678;28;20019;-62
2024/02/10 14:55:44;;;;;;;;;;;0.40;99.90;;;;;;5067666;28;19971;-59
2024/02/10 14:58:12;;;;;;;;;;;0.40;99.90;;;;;;5061446;28;19978;-61
2024/02/10 15:00:40;;;;;;;;;;;0.40;99.90;;;;;;5061367;28;19925;-62
2024/02/10 15:03:13;;;;;;;;;;;0.40;99.90;;;;;;5058548;28;19931;-59
2024/02/10 15:05:41;;;;;;;;;;;0.40;99.90;;;;;;5064997;28;19971;-61